createdAt,value
2023-04-23T00:00:23.472Z,3.38
2023-04-23T00:05:28.491Z,3.85
2023-04-23T00:10:30.930Z,3.03
2023-04-23T00:15:33.766Z,3.40
2023-04-23T00:20:36.797Z,4.25
2023-04-23T00:25:38.974Z,3.92
2023-04-23T00:30:41.097Z,4.18
2023-04-23T00:35:43.164Z,2.45
2023-04-23T00:40:45.488Z,2.38
2023-04-23T00:45:51.117Z,1.77
2023-04-23T00:51:03.234Z,3.65
2023-04-23T00:56:06.575Z,3.53
2023-04-23T01:01:09.570Z,2.60
2023-04-23T01:06:11.701Z,2.72
2023-04-23T01:11:14.981Z,4.55
2023-04-23T01:16:17.622Z,4.78
2023-04-23T01:21:20.491Z,2.05
2023-04-23T01:26:23.506Z,1.50
2023-04-23T01:31:26.149Z,1.73
2023-04-23T01:36:28.652Z,1.65
2023-04-23T01:41:30.891Z,2.92
2023-04-23T01:46:33.450Z,2.90
2023-04-23T01:51:35.928Z,3.83
2023-04-23T01:56:38.083Z,2.97
2023-04-23T02:01:44.881Z,3.33
2023-04-23T02:06:50.262Z,3.47
2023-04-23T02:11:52.982Z,2.88
2023-04-23T02:16:56.746Z,4.00
2023-04-23T02:21:58.833Z,2.67
2023-04-23T02:27:01.448Z,2.00
2023-04-23T02:32:04.577Z,1.35
2023-04-23T02:37:06.940Z,1.27
2023-04-23T02:42:09.826Z,1.10
2023-04-23T02:47:12.120Z,1.15
2023-04-23T02:52:14.277Z,1.05
2023-04-23T02:57:16.788Z,1.20
2023-04-23T03:02:18.933Z,1.17
2023-04-23T03:07:21.696Z,2.17
2023-04-23T03:12:23.989Z,2.05
2023-04-23T03:17:26.133Z,0.80
2023-04-23T03:22:28.259Z,1.05
2023-04-23T03:27:31.050Z,1.08
2023-04-23T03:32:33.201Z,1.33
2023-04-23T03:37:35.699Z,1.63
2023-04-23T03:42:39.730Z,1.42
2023-04-23T03:47:43.841Z,0.88
2023-04-23T03:52:46.402Z,1.00
2023-04-23T03:58:01.729Z,1.00
2023-04-23T04:03:12.254Z,0.55
2023-04-23T04:08:14.556Z,1.00
2023-04-23T04:13:16.631Z,0.63
2023-04-23T04:18:18.722Z,0.50
2023-04-23T04:23:20.877Z,0.70
2023-04-23T04:28:23.097Z,0.55
2023-04-23T04:33:25.901Z,1.33
2023-04-23T04:38:28.661Z,0.50
2023-04-23T04:43:32.540Z,0.50
2023-04-23T04:48:35.027Z,0.52
2023-04-23T04:53:37.096Z,0.45
2023-04-23T04:58:39.215Z,0.50
2023-04-23T05:03:41.466Z,0.40
2023-04-23T05:08:48.075Z,0.45
2023-04-23T05:13:50.269Z,0.68
2023-04-23T05:18:52.581Z,0.60
2023-04-23T05:23:55.521Z,0.50
2023-04-23T05:28:58.877Z,0.40
2023-04-23T05:34:01.294Z,0.52
2023-04-23T05:39:03.432Z,0.50
2023-04-23T05:44:05.504Z,0.60
2023-04-23T05:49:07.564Z,0.65
2023-04-23T05:54:09.643Z,0.70
2023-04-23T05:59:11.978Z,0.60
2023-04-23T06:04:14.791Z,1.42
2023-04-23T06:09:17.015Z,0.68
2023-04-23T06:14:19.101Z,0.88
2023-04-23T06:19:21.283Z,0.85
2023-04-23T06:24:23.585Z,1.13
2023-04-23T06:29:25.807Z,2.75
2023-04-23T06:34:46.764Z,2.13
2023-04-23T06:39:55.519Z,1.85
2023-04-23T06:44:59.567Z,1.80
2023-04-23T06:50:02.265Z,1.02
2023-04-23T06:55:04.774Z,1.23
2023-04-23T07:00:13.777Z,3.08
2023-04-23T07:05:18.885Z,3.50
2023-04-23T07:10:21.033Z,4.07
2023-04-23T07:15:23.157Z,3.35
2023-04-23T07:20:26.369Z,3.08
2023-04-23T07:25:28.525Z,3.20
2023-04-23T07:30:31.490Z,3.22
2023-04-23T07:35:33.562Z,2.67
2023-04-23T07:40:37.058Z,2.25
2023-04-23T07:45:39.144Z,1.95
2023-04-23T07:50:42.103Z,2.08
2023-04-23T07:55:44.179Z,1.90
2023-04-23T08:00:46.422Z,2.10
2023-04-23T08:05:48.683Z,1.35
2023-04-23T08:10:50.809Z,1.55
2023-04-23T08:15:52.923Z,2.92
2023-04-23T08:20:56.442Z,2.65
2023-04-23T08:25:58.580Z,1.95
2023-04-23T08:31:01.912Z,1.80
2023-04-23T08:36:06.595Z,2.03
2023-04-23T08:41:11.588Z,3.30
2023-04-23T08:46:16.131Z,4.25
2023-04-23T08:51:20.138Z,5.65
2023-04-23T08:56:23.546Z,6.47
2023-04-23T09:01:25.929Z,6.85
2023-04-23T09:06:29.326Z,7.45
2023-04-23T09:11:31.908Z,7.95
2023-04-23T09:16:34.278Z,8.48
2023-04-23T09:21:39.343Z,9.32
2023-04-23T09:26:46.940Z,8.65
2023-04-23T09:31:54.697Z,9.95
2023-04-23T09:36:56.851Z,11.00
2023-04-23T09:42:04.293Z,15.27
2023-04-23T09:47:09.927Z,19.50
2023-04-23T09:52:12.050Z,21.40
2023-04-23T09:57:14.342Z,17.77
2023-04-23T10:02:16.680Z,13.60
2023-04-23T10:07:20.572Z,13.02
2023-04-23T10:17:28.370Z,11.70
2023-04-23T10:22:33.008Z,12.40
2023-04-23T10:27:52.214Z,12.07
2023-04-23T10:32:56.984Z,10.02
2023-04-23T10:37:59.443Z,9.50
2023-04-23T10:43:01.795Z,6.82
2023-04-23T10:48:04.614Z,7.13
2023-04-23T10:53:20.207Z,6.57
2023-04-23T10:58:24.683Z,4.88
2023-04-23T11:03:33.054Z,5.72
2023-04-23T11:08:36.433Z,4.63
2023-04-23T11:13:52.993Z,4.20
2023-04-23T11:19:11.441Z,3.15
2023-04-23T11:24:13.590Z,10.70
2023-04-23T11:29:16.595Z,4.55
2023-04-23T11:34:18.944Z,4.15
2023-04-23T11:39:24.170Z,3.83
2023-04-23T11:44:26.382Z,3.65
2023-04-23T11:49:28.549Z,3.30
2023-04-23T11:54:30.796Z,4.55
2023-04-23T11:59:32.958Z,3.67
2023-04-23T12:04:35.049Z,3.60
2023-04-23T12:09:38.297Z,4.13
2023-04-23T12:14:40.582Z,4.57
2023-04-23T12:19:45.028Z,4.10
2023-04-23T12:24:51.399Z,4.07
2023-04-23T12:30:01.043Z,3.70
2023-04-23T12:35:06.288Z,3.97
2023-04-23T12:40:08.938Z,3.72
2023-04-23T12:45:12.000Z,3.38
2023-04-23T12:50:14.318Z,3.67
2023-04-23T12:55:16.562Z,4.07
2023-04-23T13:00:18.873Z,3.33
2023-04-23T13:05:21.168Z,2.97
2023-04-23T13:10:23.344Z,2.85
2023-04-23T13:15:27.033Z,3.10
2023-04-23T13:20:29.409Z,3.03
2023-04-23T13:25:31.556Z,5.13
2023-04-23T13:30:33.725Z,3.28
2023-04-23T13:35:37.849Z,4.15
2023-04-23T13:40:40.080Z,2.60
2023-04-23T13:45:42.228Z,2.35
2023-04-23T13:50:44.896Z,2.53
2023-04-23T13:55:47.048Z,2.55
2023-04-23T14:00:49.367Z,2.22
2023-04-23T14:05:51.691Z,1.90
2023-04-23T14:10:55.087Z,1.60
2023-04-23T14:15:57.813Z,2.10
2023-04-23T14:21:00.955Z,1.70
2023-04-23T14:26:11.940Z,1.33
2023-04-23T14:31:14.257Z,2.28
2023-04-23T14:36:17.191Z,1.40
2023-04-23T14:41:19.371Z,1.80
2023-04-23T14:46:21.644Z,1.70
2023-04-23T14:51:24.465Z,1.77
2023-04-23T14:56:27.537Z,1.80
2023-04-23T15:01:30.610Z,1.83
2023-04-23T15:06:32.818Z,1.70
2023-04-23T15:11:35.305Z,1.73
2023-04-23T15:16:47.522Z,1.40
2023-04-23T15:21:55.373Z,1.20
2023-04-23T15:26:59.715Z,1.65
2023-04-23T15:32:01.898Z,2.33
2023-04-23T15:37:04.115Z,2.47
2023-04-23T15:42:06.716Z,1.88
2023-04-23T15:47:08.863Z,1.77
2023-04-23T15:52:11.152Z,2.60
2023-04-23T15:57:13.357Z,1.63
2023-04-23T16:02:15.872Z,2.58
2023-04-23T16:07:20.094Z,1.70
2023-04-23T16:12:22.640Z,3.00
2023-04-23T16:17:27.929Z,1.77
2023-04-23T16:22:31.107Z,2.13
2023-04-23T16:27:36.604Z,2.28
2023-04-23T16:32:42.018Z,2.20
2023-04-23T16:37:45.594Z,2.13
2023-04-23T16:42:49.486Z,2.58
2023-04-23T16:47:51.873Z,2.78
2023-04-23T16:52:54.109Z,3.97
2023-04-23T16:57:59.195Z,2.80
2023-04-23T17:03:03.337Z,2.90
2023-04-23T17:08:08.070Z,2.78
2023-04-23T17:13:13.109Z,2.80
2023-04-23T17:18:16.521Z,2.60
2023-04-23T17:23:18.760Z,2.97
2023-04-23T17:28:21.653Z,3.53
2023-04-23T17:33:24.853Z,3.90
2023-04-23T17:38:28.777Z,3.53
2023-04-23T17:43:34.866Z,2.70
2023-04-23T17:48:41.069Z,2.53
2023-04-23T17:53:49.303Z,2.40
2023-04-23T17:58:51.993Z,2.70
2023-04-23T18:03:55.204Z,3.65
2023-04-23T18:08:57.576Z,3.00
2023-04-23T18:14:00.108Z,3.20
2023-04-23T18:19:02.422Z,4.18
2023-04-23T18:24:04.869Z,3.35
2023-04-23T18:29:08.442Z,3.55
2023-04-23T18:34:18.345Z,3.33
2023-04-23T18:39:21.040Z,2.33
2023-04-23T18:44:23.604Z,2.97
2023-04-23T18:49:46.905Z,3.25
2023-04-23T18:54:49.996Z,2.85
2023-04-23T18:59:52.326Z,3.15
2023-04-23T19:04:54.652Z,2.85
2023-04-23T19:09:57.041Z,2.78
2023-04-23T19:14:59.277Z,2.28
2023-04-23T19:20:01.504Z,2.58
2023-04-23T19:25:04.689Z,2.45
2023-04-23T19:30:11.825Z,3.55
2023-04-23T19:35:14.013Z,2.47
2023-04-23T19:40:16.394Z,3.30
2023-04-23T19:45:18.845Z,2.92
2023-04-23T19:50:21.703Z,2.63
2023-04-23T19:55:27.285Z,4.45
2023-04-23T20:00:30.724Z,2.28
2023-04-23T20:05:33.065Z,2.53
2023-04-23T20:10:35.188Z,2.10
2023-04-23T20:15:38.031Z,2.00
2023-04-23T20:20:42.023Z,1.60
2023-04-23T20:25:44.265Z,1.42
2023-04-23T20:30:46.427Z,1.50
2023-04-23T20:35:48.798Z,1.60
2023-04-23T20:40:51.945Z,1.45
2023-04-23T20:45:54.393Z,2.30
2023-04-23T20:50:57.929Z,2.10
2023-04-23T20:56:00.172Z,1.77
2023-04-23T21:01:04.840Z,2.70
2023-04-23T21:06:09.442Z,2.83
2023-04-23T21:11:15.646Z,2.20
2023-04-23T21:16:18.596Z,2.25
2023-04-23T21:21:27.032Z,2.30
2023-04-23T21:26:30.707Z,1.90
2023-04-23T21:31:42.747Z,2.30
2023-04-23T21:36:45.852Z,2.22
2023-04-23T21:41:48.094Z,2.88
2023-04-23T21:46:50.680Z,1.88
2023-04-23T21:51:54.613Z,2.33
2023-04-23T21:56:56.788Z,2.15
2023-04-23T22:01:58.977Z,1.77
2023-04-23T22:07:03.516Z,2.22
2023-04-23T22:12:05.930Z,1.77
2023-04-23T22:17:09.061Z,2.47
2023-04-23T22:22:11.350Z,1.95
2023-04-23T22:27:13.490Z,1.95
2023-04-23T22:32:15.791Z,1.70
2023-04-23T22:37:18.149Z,3.17
2023-04-23T22:42:20.731Z,1.95
2023-04-23T22:47:22.954Z,2.00
2023-04-23T22:52:25.691Z,1.83
2023-04-23T22:57:28.089Z,1.65
2023-04-23T23:02:30.546Z,1.65
2023-04-23T23:07:32.927Z,1.02
2023-04-23T23:12:36.685Z,1.25
2023-04-23T23:17:39.086Z,1.60
2023-04-23T23:22:41.346Z,1.15
2023-04-23T23:27:43.509Z,0.90
2023-04-23T23:32:46.224Z,2.05
2023-04-23T23:37:48.679Z,1.05
2023-04-23T23:42:50.867Z,1.20
2023-04-23T23:47:53.213Z,0.70
2023-04-23T23:52:55.515Z,1.05
2023-04-23T23:57:57.630Z,0.80
